Olathe, Colorado
Current Conditions -  °F | °C
As of 4:53 AM on Thursday 23 Oct 2014 (Local Time) from KMTJ Reporting Station
Clear Clear  
Wind Chill: 34°   Ceiling: Unl
Heat Index: 40°   Visibility: 10mi
Dew Point: 35°   Wind: 8mph
Humidity: 83%   Direction: 160°SSE
Pressure: 30.27"   Gusts: NA
Location:  38.6°N, 107.98°W
Report Text: KMTJ 231053Z AUTO 16007KT 10SM CLR 04/02 A3027 RMK AO2 SLP207 T00440017
Loading
Personal Weather Stations






























Interactive Weather Map
Tropical Storm Tracking
New forecast layout! Learn more

10-Day Weather Forecast

Advertisements
Track Severe Weather on mobile